Time;durP1;ratioP1;P1;durP2;ratioP2;P2;SDS_P1;SDS_P2;PMS_P1;PMS_P2;Temp;Humidity;BMP_temperature;BMP_pressure;BME280_temperature;BME280_humidity;BME280_pressure;Samples;Min_cycle;Max_cycle;Signal;HPM_P1;HPM_P2
2023/08/30 00:00:05;;;;;;;12.68;9.45;;;15.00;77.60;;;;;;4926084;29;20253;-78
2023/08/30 00:02:33;;;;;;;14.55;9.35;;;15.00;77.50;;;;;;4909530;29;21001;-78
2023/08/30 00:05:00;;;;;;;12.45;9.20;;;15.00;77.50;;;;;;4926208;29;20139;-78
2023/08/30 00:07:29;;;;;;;13.45;9.25;;;15.00;77.50;;;;;;4910026;29;20294;-78
2023/08/30 00:09:57;;;;;;;13.03;9.03;;;14.90;77.60;;;;;;4930016;28;20084;-78
2023/08/30 00:12:24;;;;;;;14.15;9.15;;;14.90;77.50;;;;;;4911703;29;20333;-78
2023/08/30 00:14:51;;;;;;;14.15;9.70;;;14.90;77.60;;;;;;4910110;29;20931;-78
2023/08/30 00:17:19;;;;;;;12.68;9.50;;;14.90;77.50;;;;;;4909938;29;20053;-78
2023/08/30 00:19:48;;;;;;;14.50;9.60;;;14.90;77.60;;;;;;4910676;29;20053;-78
2023/08/30 00:22:15;;;;;;;13.40;9.40;;;14.80;77.60;;;;;;4925899;29;20089;-78
2023/08/30 00:24:43;;;;;;;12.27;8.32;;;14.80;77.50;;;;;;4910453;29;20269;-78
2023/08/30 00:27:10;;;;;;;12.40;9.23;;;14.80;77.60;;;;;;4909849;29;20095;-78
2023/08/30 00:29:37;;;;;;;12.63;8.60;;;14.70;77.60;;;;;;4894435;29;21009;-78
2023/08/30 00:32:05;;;;;;;13.73;8.80;;;14.70;77.70;;;;;;4998419;23;20087;-78
2023/08/30 00:34:32;;;;;;;13.93;8.90;;;14.70;77.70;;;;;;4948434;28;20143;-78
2023/08/30 00:36:59;;;;;;;11.25;8.18;;;14.70;77.70;;;;;;4931311;28;20315;-78
2023/08/30 00:39:26;;;;;;;11.25;8.20;;;14.60;77.70;;;;;;4929086;28;20067;-78
2023/08/30 00:41:54;;;;;;;11.82;8.40;;;14.60;77.80;;;;;;4952842;28;20774;-78
2023/08/30 00:44:23;;;;;;;13.88;8.77;;;14.60;77.90;;;;;;4947596;28;20063;-78
2023/08/30 00:46:50;;;;;;;12.90;8.60;;;14.60;78.00;;;;;;4926425;28;20052;-78
2023/08/30 00:49:17;;;;;;;12.93;8.50;;;14.50;78.00;;;;;;4935019;28;20359;-78
2023/08/30 00:51:44;;;;;;;12.45;8.48;;;14.50;78.00;;;;;;4946366;28;20631;-78
2023/08/30 00:54:12;;;;;;;12.20;8.38;;;14.50;78.00;;;;;;4935488;28;20060;-78
2023/08/30 00:56:38;;;;;;;11.55;8.23;;;14.50;78.10;;;;;;4934319;28;20557;-78
2023/08/30 00:59:07;;;;;;;11.60;8.10;;;14.60;78.00;;;;;;4948573;28;20063;-78
2023/08/30 01:01:34;;;;;;;11.85;7.95;;;14.50;78.00;;;;;;4942954;28;20984;-78
2023/08/30 01:04:02;;;;;;;12.13;8.15;;;14.50;78.00;;;;;;4935002;28;20055;-78
2023/08/30 01:06:29;;;;;;;13.00;8.50;;;14.50;78.00;;;;;;4935008;28;20059;-78
2023/08/30 01:08:56;;;;;;;12.48;8.27;;;14.50;78.00;;;;;;4934653;28;20055;-78
2023/08/30 01:11:30;;;;;;;11.57;7.77;;;14.50;78.20;;;;;;4951181;28;20059;-78
2023/08/30 01:14:08;;;;;;;14.68;8.15;;;14.50;78.20;;;;;;4947120;28;20743;-78
2023/08/30 01:16:37;;;;;;;11.10;7.90;;;14.50;78.30;;;;;;4966210;28;20047;-78
2023/08/30 01:19:16;;;;;;;14.50;8.43;;;14.50;78.40;;;;;;4951050;28;20062;-78
2023/08/30 01:21:51;;;;;;;11.75;7.97;;;14.50;78.40;;;;;;4936589;28;20060;-78
2023/08/30 01:24:30;;;;;;;11.50;8.10;;;14.50;78.50;;;;;;4946971;28;20056;-78
2023/08/30 01:27:11;;;;;;;12.18;8.20;;;14.40;78.50;;;;;;4944101;28;20344;-78
2023/08/30 01:29:39;;;;;;;12.30;8.27;;;14.40;78.60;;;;;;4931561;29;20184;-78
2023/08/30 01:32:09;;;;;;;12.45;7.72;;;14.40;78.60;;;;;;4947293;28;20063;-78
2023/08/30 01:34:38;;;;;;;12.60;7.80;;;14.40;78.60;;;;;;4950734;28;20178;-78
2023/08/30 01:37:07;;;;;;;12.27;7.70;;;14.40;78.70;;;;;;4950714;28;20048;-78
2023/08/30 01:39:35;;;;;;;13.15;7.70;;;14.40;78.80;;;;;;4950586;28;20264;-78
2023/08/30 01:42:04;;;;;;;12.60;7.78;;;14.40;78.80;;;;;;4950785;28;20196;-78
2023/08/30 01:44:34;;;;;;;12.27;7.55;;;14.40;78.90;;;;;;4918978;28;20083;-78
2023/08/30 01:47:02;;;;;;;10.43;7.30;;;14.40;78.90;;;;;;4934506;28;20040;-78
2023/08/30 01:49:32;;;;;;;11.53;7.40;;;14.40;78.90;;;;;;4935303;28;20052;-78
2023/08/30 01:52:00;;;;;;;9.95;6.95;;;14.30;78.90;;;;;;4949456;28;20248;-78
2023/08/30 01:54:29;;;;;;;11.50;7.78;;;14.30;78.90;;;;;;4951870;28;20055;-78
2023/08/30 01:56:57;;;;;;;11.23;6.40;;;14.30;78.80;;;;;;4949058;28;20058;-78
2023/08/30 01:59:25;;;;;;;10.90;7.32;;;14.30;78.80;;;;;;4950080;28;20434;-78
2023/08/30 02:01:57;;;;;;;11.50;7.03;;;14.30;78.70;;;;;;4948774;28;20055;-78
2023/08/30 02:04:24;;;;;;;12.40;7.43;;;14.30;78.70;;;;;;4947278;28;21016;-78
2023/08/30 02:06:58;;;;;;;10.38;7.03;;;14.20;78.70;;;;;;4943815;28;20084;-78
2023/08/30 02:09:29;;;;;;;10.57;6.60;;;14.20;78.70;;;;;;4918225;28;20159;-78
2023/08/30 02:11:57;;;;;;;9.73;6.90;;;14.20;78.70;;;;;;4949757;28;20139;-78
2023/08/30 02:14:27;;;;;;;11.03;6.77;;;14.20;78.60;;;;;;4950230;28;20192;-78
2023/08/30 02:16:56;;;;;;;11.85;7.60;;;14.20;78.60;;;;;;4950997;28;20362;-78
2023/08/30 02:19:24;;;;;;;10.00;6.65;;;14.10;78.60;;;;;;4933997;28;20060;-77
2023/08/30 02:21:52;;;;;;;10.52;7.07;;;14.10;78.60;;;;;;4950155;28;20973;-77
2023/08/30 02:24:19;;;;;;;10.43;7.00;;;14.10;78.70;;;;;;4949326;28;20044;-78
2023/08/30 02:26:46;;;;;;;10.97;7.27;;;14.10;78.70;;;;;;4933894;28;20522;-78
2023/08/30 02:29:14;;;;;;;10.18;7.10;;;14.10;78.60;;;;;;4933792;28;20377;-78
2023/08/30 02:31:41;;;;;;;10.38;7.35;;;14.10;78.60;;;;;;4949299;28;20059;-78
2023/08/30 02:34:10;;;;;;;13.13;7.15;;;14.10;78.50;;;;;;4949586;28;20116;-78
2023/08/30 02:36:37;;;;;;;10.75;7.00;;;14.10;78.50;;;;;;4949608;28;20095;-78
2023/08/30 02:39:05;;;;;;;11.97;7.10;;;14.10;78.50;;;;;;4949883;28;20128;-78
2023/08/30 02:41:32;;;;;;;12.02;7.28;;;14.10;78.50;;;;;;4948418;28;20271;-78
2023/08/30 02:43:59;;;;;;;11.52;7.60;;;14.10;78.50;;;;;;4965457;28;20066;-78
2023/08/30 02:46:29;;;;;;;9.60;6.65;;;14.00;78.60;;;;;;4949485;28;20044;-78
2023/08/30 02:48:56;;;;;;;10.85;7.60;;;14.00;78.70;;;;;;4933712;28;20135;-78
2023/08/30 02:51:25;;;;;;;11.10;7.83;;;14.00;78.70;;;;;;4949425;28;20059;-78
2023/08/30 02:53:52;;;;;;;10.25;7.43;;;14.00;78.70;;;;;;4949355;28;20367;-78
2023/08/30 02:56:19;;;;;;;14.82;8.20;;;14.00;78.60;;;;;;4949805;28;20062;-78
2023/08/30 02:58:47;;;;;;;10.85;6.82;;;14.00;78.70;;;;;;4949004;28;20055;-78
2023/08/30 03:01:14;;;;;;;11.75;7.35;;;14.00;78.70;;;;;;4949278;28;20106;-78
2023/08/30 03:03:41;;;;;;;11.23;7.53;;;14.00;78.70;;;;;;4933610;28;20183;-78
2023/08/30 03:06:08;;;;;;;12.10;7.55;;;14.00;78.70;;;;;;4948909;28;20279;-78
2023/08/30 03:08:37;;;;;;;13.30;8.20;;;13.90;78.70;;;;;;4948757;28;20056;-78
2023/08/30 03:11:11;;;;;;;13.30;7.65;;;13.90;78.70;;;;;;4948807;28;20127;-78
2023/08/30 03:13:42;;;;;;;12.73;7.95;;;13.90;78.70;;;;;;4933351;28;20051;-78
2023/08/30 03:16:12;;;;;;;10.77;7.13;;;13.90;78.70;;;;;;4943683;28;20056;-78
2023/08/30 03:18:40;;;;;;;13.43;7.93;;;13.90;78.70;;;;;;4935944;28;20307;-78
2023/08/30 03:21:07;;;;;;;11.50;7.63;;;13.90;78.70;;;;;;4942523;28;20086;-78
2023/08/30 03:23:35;;;;;;;11.18;7.80;;;13.90;78.70;;;;;;4933165;28;20146;-78
2023/08/30 03:26:32;;;;;;;12.10;7.43;;;13.90;78.70;;;;;;4932670;29;20517;-78
2023/08/30 03:29:00;;;;;;;12.00;7.47;;;13.80;78.70;;;;;;4911919;29;20135;-78
2023/08/30 03:31:28;;;;;;;12.13;7.60;;;13.90;78.70;;;;;;4920048;28;20284;-78
2023/08/30 03:33:55;;;;;;;13.05;7.80;;;13.80;78.60;;;;;;4957681;28;20059;-78
2023/08/30 03:36:22;;;;;;;11.95;7.60;;;13.80;78.60;;;;;;4929717;28;20056;-78
2023/08/30 03:38:50;;;;;;;11.25;7.40;;;13.80;78.60;;;;;;4914115;29;20115;-78
2023/08/30 03:41:17;;;;;;;11.37;7.63;;;13.80;78.60;;;;;;4929531;28;20139;-78
2023/08/30 03:43:45;;;;;;;12.25;7.90;;;13.70;78.60;;;;;;4930011;29;20325;-78
2023/08/30 03:46:13;;;;;;;12.57;7.35;;;13.70;78.60;;;;;;4921565;29;20082;-78
2023/08/30 03:48:41;;;;;;;10.98;7.95;;;13.70;78.60;;;;;;4922897;29;20116;-78
2023/08/30 03:51:08;;;;;;;13.57;7.85;;;13.70;78.70;;;;;;4928587;28;20167;-78
2023/08/30 03:53:36;;;;;;;11.17;7.47;;;13.70;78.70;;;;;;4929537;29;20048;-78
2023/08/30 03:56:04;;;;;;;11.02;7.15;;;13.70;78.70;;;;;;4948212;28;20316;-78
2023/08/30 03:58:33;;;;;;;15.60;8.30;;;13.60;78.70;;;;;;4934143;28;20052;-78
2023/08/30 04:01:00;;;;;;;10.68;7.15;;;13.60;78.80;;;;;;4927323;28;20454;-78
2023/08/30 04:03:28;;;;;;;12.02;7.50;;;13.60;78.90;;;;;;4916234;29;20060;-78
2023/08/30 04:05:57;;;;;;;11.53;7.53;;;13.60;78.90;;;;;;4929543;28;20841;-78
2023/08/30 04:08:25;;;;;;;11.50;7.50;;;13.60;78.90;;;;;;4914039;29;20277;-78
2023/08/30 04:10:54;;;;;;;9.88;6.75;;;13.60;78.90;;;;;;4912886;28;20139;-78
2023/08/30 04:13:21;;;;;;;12.82;7.57;;;13.50;79.00;;;;;;4942399;28;20124;-78
2023/08/30 04:15:49;;;;;;;12.18;7.32;;;13.50;79.10;;;;;;4919190;28;20782;-78
2023/08/30 04:18:16;;;;;;;12.47;7.23;;;13.50;79.20;;;;;;4908241;29;20059;-78
2023/08/30 04:20:46;;;;;;;11.02;7.50;;;13.50;79.20;;;;;;4929745;28;20780;-78
2023/08/30 04:23:14;;;;;;;11.85;7.72;;;13.50;79.30;;;;;;4934628;28;20059;-78
2023/08/30 04:25:42;;;;;;;11.90;8.05;;;13.50;79.30;;;;;;4932426;28;20048;-78
2023/08/30 04:28:09;;;;;;;12.80;7.72;;;13.50;79.40;;;;;;4931633;28;20574;-78
2023/08/30 04:30:38;;;;;;;11.13;7.33;;;13.50;79.40;;;;;;4916229;29;20163;-78
2023/08/30 04:33:06;;;;;;;13.52;8.00;;;13.50;79.50;;;;;;4948797;28;20313;-78
2023/08/30 04:35:33;;;;;;;11.43;7.05;;;13.50;79.60;;;;;;4916132;29;20059;-78
2023/08/30 04:38:03;;;;;;;11.95;7.68;;;13.50;79.60;;;;;;4917550;29;20501;-78
2023/08/30 04:40:30;;;;;;;12.98;8.20;;;13.50;79.60;;;;;;4931664;29;20059;-78
2023/08/30 04:42:57;;;;;;;12.60;8.20;;;13.50;79.60;;;;;;4931246;29;20067;-78
2023/08/30 04:45:25;;;;;;;13.13;8.20;;;13.50;79.60;;;;;;4931446;29;20801;-78
2023/08/30 04:47:52;;;;;;;12.65;7.80;;;13.50;79.60;;;;;;4917162;29;20048;-78
2023/08/30 04:50:19;;;;;;;13.20;8.18;;;13.50;79.60;;;;;;4915849;29;20055;-78
2023/08/30 04:52:47;;;;;;;11.75;7.20;;;13.50;79.70;;;;;;4934040;28;20091;-78
2023/08/30 04:55:16;;;;;;;13.97;8.17;;;13.40;79.70;;;;;;4932375;29;20127;-78
2023/08/30 04:57:44;;;;;;;12.35;7.88;;;13.40;79.80;;;;;;4945432;28;20273;-78
2023/08/30 05:00:15;;;;;;;13.35;8.10;;;13.40;79.80;;;;;;4929382;28;20112;-78
2023/08/30 05:02:43;;;;;;;12.20;7.88;;;13.40;79.80;;;;;;4923537;28;20049;-78
2023/08/30 05:05:11;;;;;;;12.27;7.90;;;13.40;79.90;;;;;;4931864;28;20346;-78
2023/08/30 05:07:39;;;;;;;13.00;8.07;;;13.30;80.00;;;;;;4930720;29;20147;-78
2023/08/30 05:10:07;;;;;;;12.57;7.82;;;13.30;80.10;;;;;;4912813;28;20820;-78
2023/08/30 05:12:36;;;;;;;13.20;8.00;;;13.30;80.10;;;;;;4920926;28;20490;-78
2023/08/30 05:15:04;;;;;;;12.43;7.55;;;13.30;80.10;;;;;;4931874;29;20143;-78
2023/08/30 05:17:32;;;;;;;12.07;7.82;;;13.30;80.10;;;;;;4947883;28;20048;-78
2023/08/30 05:20:02;;;;;;;13.80;8.10;;;13.40;80.20;;;;;;4943933;28;20546;-79
2023/08/30 05:22:29;;;;;;;13.32;7.45;;;13.30;80.10;;;;;;4912674;29;20269;-78
2023/08/30 05:24:56;;;;;;;12.52;7.85;;;13.30;80.10;;;;;;4924281;29;20054;-78
2023/08/30 05:27:23;;;;;;;11.43;7.40;;;13.40;80.20;;;;;;4931287;29;20107;-78
2023/08/30 05:29:52;;;;;;;13.90;8.00;;;13.30;80.20;;;;;;4915119;29;20060;-78
2023/08/30 05:32:19;;;;;;;13.13;7.53;;;13.40;80.10;;;;;;4930339;28;20086;-79
2023/08/30 05:35:06;;;;;;;12.75;7.47;;;13.40;80.10;;;;;;4927740;29;20295;-78
2023/08/30 05:37:53;;;;;;;13.23;6.93;;;13.40;80.10;;;;;;4943744;28;20060;-78
2023/08/30 05:40:52;;;;;;;12.18;7.45;;;13.40;80.10;;;;;;4938887;28;20587;-78
2023/08/30 05:43:19;;;;;;;12.27;7.45;;;13.40;80.10;;;;;;4933626;28;20044;-81
2023/08/30 05:45:48;;;;;;;12.63;7.43;;;13.40;80.10;;;;;;4930476;29;20087;-80
2023/08/30 05:48:15;;;;;;;13.18;7.35;;;13.40;80.20;;;;;;4930088;28;20260;-80
2023/08/30 05:50:45;;;;;;;15.35;8.13;;;13.40;80.20;;;;;;4920956;29;20183;-80
2023/08/30 05:53:12;;;;;;;12.60;7.40;;;13.40;80.20;;;;;;4928208;28;20575;-80
2023/08/30 05:55:39;;;;;;;12.68;7.50;;;13.40;80.20;;;;;;4912110;29;20056;-80
2023/08/30 05:58:06;;;;;;;14.53;7.70;;;13.40;80.20;;;;;;4912236;29;20059;-79
2023/08/30 06:00:34;;;;;;;13.95;8.25;;;13.40;80.20;;;;;;4928836;29;20268;-80
2023/08/30 06:03:02;;;;;;;16.92;8.93;;;13.50;80.40;;;;;;4934273;28;20175;-80
2023/08/30 06:05:29;;;;;;;14.75;8.13;;;13.50;80.30;;;;;;4929785;29;20091;-79
2023/08/30 06:07:57;;;;;;;14.18;8.68;;;13.50;80.30;;;;;;4929181;29;20087;-79
2023/08/30 06:10:24;;;;;;;13.37;7.83;;;13.50;80.20;;;;;;4929637;28;20147;-79
2023/08/30 06:12:51;;;;;;;14.05;7.95;;;13.50;80.20;;;;;;4933992;28;20312;-79
2023/08/30 06:15:19;;;;;;;13.23;7.80;;;13.50;80.20;;;;;;4926884;28;20107;-77
2023/08/30 06:17:46;;;;;;;14.70;8.10;;;13.50;80.10;;;;;;4944948;28;20131;-79
2023/08/30 06:20:15;;;;;;;12.95;7.75;;;13.50;80.10;;;;;;4940113;28;20060;-78
2023/08/30 06:22:42;;;;;;;12.43;7.47;;;13.50;80.00;;;;;;4927054;29;20151;-79
2023/08/30 06:25:10;;;;;;;15.18;7.30;;;13.50;80.00;;;;;;4942277;28;20407;-78
2023/08/30 06:27:43;;;;;;;15.60;7.82;;;13.50;80.00;;;;;;4917899;29;20515;-78
2023/08/30 06:30:11;;;;;;;15.82;7.80;;;13.60;80.00;;;;;;4943975;28;20060;-79
2023/08/30 06:32:38;;;;;;;14.02;7.72;;;13.60;80.00;;;;;;4946007;28;20521;-80
2023/08/30 06:35:06;;;;;;;13.77;7.53;;;13.60;80.00;;;;;;4930716;28;20590;-78
2023/08/30 06:37:34;;;;;;;16.70;8.40;;;13.60;80.10;;;;;;4922997;29;20281;-79
2023/08/30 06:40:03;;;;;;;16.10;8.85;;;13.60;80.10;;;;;;4926359;28;20162;-79
2023/08/30 06:42:30;;;;;;;13.70;7.88;;;13.60;80.10;;;;;;4930114;29;20534;-78
2023/08/30 06:44:57;;;;;;;14.57;7.80;;;13.70;80.10;;;;;;4930228;29;20127;-78
2023/08/30 06:47:24;;;;;;;16.80;8.90;;;13.70;80.00;;;;;;4930259;29;20064;-78
2023/08/30 06:49:51;;;;;;;16.10;7.65;;;13.70;79.90;;;;;;4930885;28;20469;-78
2023/08/30 06:52:18;;;;;;;16.70;8.23;;;13.70;79.90;;;;;;4986551;23;20796;-78
2023/08/30 06:54:47;;;;;;;13.70;8.07;;;13.70;80.00;;;;;;4974339;28;20058;-78
2023/08/30 06:57:15;;;;;;;13.15;7.20;;;13.80;79.80;;;;;;4968761;28;20051;-78
2023/08/30 06:59:42;;;;;;;14.47;7.80;;;13.80;79.70;;;;;;4969238;28;20134;-78
2023/08/30 07:02:09;;;;;;;13.05;8.25;;;13.80;79.70;;;;;;4965134;28;20263;-78
2023/08/30 07:04:36;;;;;;;15.15;8.20;;;13.90;79.80;;;;;;4951620;28;20918;-78
2023/08/30 07:07:03;;;;;;;14.88;8.27;;;13.90;79.70;;;;;;4964354;28;20555;-79
2023/08/30 07:09:33;;;;;;;14.38;8.25;;;13.90;79.60;;;;;;4961307;28;20138;-77
2023/08/30 07:12:01;;;;;;;14.87;8.37;;;13.90;79.50;;;;;;4984055;28;20047;-78
2023/08/30 07:14:28;;;;;;;14.63;7.70;;;13.90;79.50;;;;;;4968796;28;20303;-79
2023/08/30 07:16:55;;;;;;;15.25;8.25;;;13.90;79.40;;;;;;4966587;28;20086;-77
2023/08/30 07:19:22;;;;;;;15.77;8.18;;;13.90;79.40;;;;;;4960519;28;20851;-78
2023/08/30 07:21:49;;;;;;;15.90;9.07;;;14.00;79.30;;;;;;4968897;28;20135;-78
2023/08/30 07:24:16;;;;;;;14.10;8.30;;;14.00;79.30;;;;;;4968952;28;20752;-78
2023/08/30 07:26:44;;;;;;;14.93;8.52;;;14.00;79.30;;;;;;4967206;28;20360;-78
2023/08/30 07:29:12;;;;;;;14.85;8.18;;;14.00;79.30;;;;;;4950799;28;20047;-77
2023/08/30 07:31:41;;;;;;;14.85;8.43;;;14.10;79.40;;;;;;4975187;28;20056;-78
2023/08/30 07:34:08;;;;;;;15.40;8.05;;;14.10;79.40;;;;;;4967432;28;20135;-78
2023/08/30 07:36:35;;;;;;;15.40;8.87;;;14.20;79.20;;;;;;4967555;28;20051;-78
2023/08/30 07:39:03;;;;;;;15.57;9.10;;;14.20;78.90;;;;;;4967586;28;20269;-78
2023/08/30 07:41:30;;;;;;;15.50;9.10;;;14.30;78.80;;;;;;4963458;28;20070;-78
2023/08/30 07:43:57;;;;;;;16.90;8.90;;;14.30;78.30;;;;;;4960582;28;20158;-77
2023/08/30 07:46:26;;;;;;;14.68;8.13;;;14.40;77.90;;;;;;4964439;28;20070;-77
2023/08/30 07:48:53;;;;;;;15.43;8.93;;;14.40;78.00;;;;;;4960768;28;20051;-77
2023/08/30 07:51:20;;;;;;;14.30;7.75;;;14.50;78.10;;;;;;4960611;28;20334;-77
2023/08/30 07:53:47;;;;;;;15.02;8.63;;;14.50;78.00;;;;;;4963396;28;20059;-77
2023/08/30 07:56:14;;;;;;;16.80;9.85;;;14.60;78.10;;;;;;4967994;28;20059;-77
2023/08/30 07:58:42;;;;;;;14.77;8.43;;;14.70;77.70;;;;;;4966599;28;20070;-77
2023/08/30 08:01:09;;;;;;;16.43;9.93;;;14.70;77.50;;;;;;4967604;28;20055;-77
2023/08/30 08:03:37;;;;;;;15.52;8.50;;;14.80;77.50;;;;;;4964087;28;20726;-77
2023/08/30 08:06:04;;;;;;;15.30;8.95;;;14.90;77.10;;;;;;4971961;28;20059;-77
2023/08/30 08:08:31;;;;;;;17.77;9.70;;;14.90;76.70;;;;;;4966582;28;20175;-77
2023/08/30 08:11:00;;;;;;;16.73;9.98;;;15.00;76.50;;;;;;4965327;28;20051;-78
2023/08/30 08:13:27;;;;;;;14.57;8.83;;;15.00;76.80;;;;;;4972708;28;20078;-79
2023/08/30 08:15:57;;;;;;;17.33;9.00;;;15.10;76.70;;;;;;4968184;28;20947;-79
2023/08/30 08:18:24;;;;;;;15.23;9.05;;;15.10;76.60;;;;;;4945075;28;20059;-77
2023/08/30 08:20:53;;;;;;;16.83;9.40;;;15.20;76.80;;;;;;4953485;28;20102;-77
2023/08/30 08:23:20;;;;;;;16.30;8.95;;;15.20;76.80;;;;;;4968171;28;20150;-77
2023/08/30 08:25:47;;;;;;;17.43;9.97;;;15.30;76.50;;;;;;4970307;28;20078;-79
2023/08/30 08:28:17;;;;;;;15.80;8.73;;;15.30;76.50;;;;;;4970695;28;20342;-79
2023/08/30 08:30:45;;;;;;;16.92;8.40;;;15.30;76.50;;;;;;4968139;28;20055;-79
2023/08/30 08:33:12;;;;;;;15.50;8.35;;;15.40;76.60;;;;;;4963311;28;20040;-79
2023/08/30 08:35:39;;;;;;;13.70;7.80;;;15.40;76.40;;;;;;4946568;28;20054;-79
2023/08/30 08:38:08;;;;;;;15.03;8.83;;;15.40;75.50;;;;;;4969399;28;20055;-79
2023/08/30 08:44:32;;;;;;;16.33;8.35;;;15.50;74.90;;;;;;4961380;28;20114;-78
2023/08/30 08:47:01;;;;;;;15.15;8.23;;;15.50;75.10;;;;;;4966523;28;20050;-78
2023/08/30 08:49:31;;;;;;;13.88;7.93;;;15.50;75.30;;;;;;4965210;28;20526;-78
2023/08/30 08:51:58;;;;;;;13.40;7.47;;;15.50;75.30;;;;;;4968135;28;20098;-78
2023/08/30 08:54:27;;;;;;;11.40;6.55;;;15.50;75.30;;;;;;4963663;28;20323;-78
2023/08/30 08:56:55;;;;;;;14.73;7.35;;;15.60;74.90;;;;;;4952186;28;20087;-79
2023/08/30 08:59:22;;;;;;;13.98;7.32;;;15.60;74.60;;;;;;4964981;28;20043;-79
2023/08/30 09:01:50;;;;;;;12.73;7.32;;;15.60;74.60;;;;;;4951334;28;20454;-79
2023/08/30 09:04:17;;;;;;;13.20;7.30;;;15.60;74.30;;;;;;4967216;28;20191;-79
2023/08/30 09:06:44;;;;;;;14.35;8.00;;;15.60;74.30;;;;;;4967304;28;20838;-79
2023/08/30 09:09:11;;;;;;;14.65;8.45;;;15.50;74.30;;;;;;4952559;28;20134;-78
2023/08/30 09:11:40;;;;;;;14.32;7.80;;;15.50;74.20;;;;;;4979036;28;20606;-79
2023/08/30 09:14:07;;;;;;;14.13;7.82;;;15.50;74.20;;;;;;4964129;28;20066;-80
2023/08/30 09:16:34;;;;;;;13.57;7.83;;;15.50;74.50;;;;;;4960834;28;20103;-78
2023/08/30 09:19:02;;;;;;;15.40;8.20;;;15.50;74.70;;;;;;4963705;28;20386;-79
2023/08/30 09:21:31;;;;;;;13.35;7.68;;;15.50;74.80;;;;;;4963601;28;20518;-79
2023/08/30 09:23:59;;;;;;;15.43;8.25;;;15.50;75.00;;;;;;4966801;28;20162;-79
2023/08/30 09:26:27;;;;;;;14.70;8.00;;;15.50;75.20;;;;;;4968811;28;20047;-79
2023/08/30 09:28:56;;;;;;;14.97;8.83;;;15.40;75.50;;;;;;4965241;28;20047;-79
2023/08/30 09:31:23;;;;;;;14.50;9.15;;;15.40;75.70;;;;;;4967384;28;20502;-79
2023/08/30 09:33:50;;;;;;;16.20;8.98;;;15.40;75.90;;;;;;4966752;28;20055;-79
2023/08/30 09:36:17;;;;;;;16.85;9.73;;;15.40;76.00;;;;;;4961774;28;20051;-80
2023/08/30 09:38:49;;;;;;;14.85;8.50;;;15.40;76.30;;;;;;4950571;28;20110;-80
2023/08/30 09:41:17;;;;;;;18.47;9.33;;;15.40;76.60;;;;;;4966593;28;20172;-79
2023/08/30 09:43:44;;;;;;;16.25;9.07;;;15.30;76.80;;;;;;4967309;28;20740;-79
2023/08/30 09:46:15;;;;;;;17.80;9.45;;;15.30;77.10;;;;;;4977762;28;20522;-79
2023/08/30 09:48:42;;;;;;;15.90;9.45;;;15.30;77.20;;;;;;4965608;28;20062;-80
2023/08/30 09:51:11;;;;;;;17.85;9.60;;;15.30;77.60;;;;;;4967831;28;20134;-79
2023/08/30 09:53:45;;;;;;;15.23;9.30;;;15.30;77.70;;;;;;4964104;28;20066;-80
2023/08/30 09:56:15;;;;;;;17.13;9.25;;;15.30;77.80;;;;;;4969711;28;22037;-80
2023/08/30 09:58:42;;;;;;;16.45;9.70;;;15.30;78.10;;;;;;4969283;28;20170;-80
2023/08/30 10:01:11;;;;;;;17.45;9.90;;;15.30;78.20;;;;;;4949861;28;20046;-80
2023/08/30 10:03:41;;;;;;;16.05;8.82;;;15.30;78.50;;;;;;4950022;28;20138;-79
2023/08/30 10:06:09;;;;;;;15.40;8.67;;;15.30;78.70;;;;;;4984794;28;20138;-79
2023/08/30 10:08:55;;;;;;;14.70;8.30;;;15.30;78.90;;;;;;4970746;28;20363;-77
2023/08/30 10:11:24;;;;;;;14.13;8.45;;;15.40;79.40;;;;;;4962776;28;20142;-77
2023/08/30 10:13:52;;;;;;;14.88;8.55;;;15.40;79.50;;;;;;4967561;28;20082;-78
2023/08/30 10:16:27;;;;;;;14.13;8.02;;;15.40;79.50;;;;;;4961331;28;20054;-78
2023/08/30 10:19:02;;;;;;;14.53;8.13;;;15.40;79.80;;;;;;4962029;28;20051;-78
2023/08/30 10:21:31;;;;;;;13.40;7.53;;;15.40;79.80;;;;;;4961852;28;20852;-78
2023/08/30 10:23:59;;;;;;;13.07;7.63;;;15.40;79.90;;;;;;4950371;28;20047;-78
2023/08/30 10:26:29;;;;;;;12.60;7.40;;;15.40;80.10;;;;;;4967471;28;20133;-78
2023/08/30 10:29:03;;;;;;;14.13;7.07;;;15.50;79.90;;;;;;4961944;28;20569;-78
2023/08/30 10:31:30;;;;;;;12.87;6.93;;;15.50;80.20;;;;;;4982016;28;20066;-79
2023/08/30 10:33:58;;;;;;;11.88;6.97;;;15.50;80.40;;;;;;4959573;28;20335;-78
2023/08/30 10:36:26;;;;;;;13.18;7.47;;;15.50;80.40;;;;;;4949124;28;20059;-80
2023/08/30 10:39:12;;;;;;;12.55;7.53;;;15.60;80.40;;;;;;5154836;27;20124;-79
2023/08/30 10:41:54;;;;;;;12.75;6.90;;;15.60;80.50;;;;;;5117428;27;20076;-79
2023/08/30 10:44:22;;;;;;;11.45;6.85;;;15.60;80.30;;;;;;5107280;27;20499;-79
2023/08/30 10:46:53;;;;;;;12.23;7.00;;;15.60;80.40;;;;;;5123838;27;20062;-79
2023/08/30 10:49:20;;;;;;;11.77;6.90;;;15.60;80.40;;;;;;5115943;27;20059;-80
2023/08/30 10:51:55;;;;;;;12.32;6.82;;;15.60;80.30;;;;;;5154175;27;20048;-78
2023/08/30 10:54:24;;;;;;;10.80;6.30;;;15.60;80.30;;;;;;5116053;27;20091;-77
2023/08/30 10:56:58;;;;;;;9.73;5.88;;;15.60;80.20;;;;;;5127740;27;20521;-76
2023/08/30 10:59:25;;;;;;;10.97;6.07;;;15.60;80.20;;;;;;5132623;27;20048;-76
2023/08/30 11:01:55;;;;;;;10.93;6.88;;;15.60;80.10;;;;;;5128632;27;20055;-76
2023/08/30 11:04:23;;;;;;;11.25;6.45;;;15.60;80.20;;;;;;5113254;27;20120;-77
2023/08/30 11:06:51;;;;;;;11.02;6.20;;;15.60;80.20;;;;;;5160100;27;20143;-77
2023/08/30 11:09:20;;;;;;;12.35;6.90;;;15.60;80.30;;;;;;5107643;27;20138;-77
2023/08/30 11:11:49;;;;;;;11.57;6.43;;;15.60;80.40;;;;;;5118024;27;20927;-78
2023/08/30 11:15:06;;;;;;;9.38;5.68;;;15.60;80.40;;;;;;5115188;27;20047;-78
2023/08/30 11:17:33;;;;;;;10.25;5.85;;;15.60;80.30;;;;;;5118809;27;20048;-78
2023/08/30 11:20:08;;;;;;;10.18;6.35;;;15.60;80.40;;;;;;5123180;27;20060;-78
2023/08/30 11:22:36;;;;;;;10.38;6.13;;;15.60;80.30;;;;;;5145971;27;20044;-82
2023/08/30 11:25:04;;;;;;;10.10;5.90;;;15.60;80.30;;;;;;5119715;27;20140;-83
2023/08/30 11:27:33;;;;;;;9.18;6.00;;;15.60;80.30;;;;;;5105308;27;20044;-82
2023/08/30 11:30:02;;;;;;;10.98;6.05;;;15.60;80.30;;;;;;5131177;27;20198;-82
2023/08/30 11:32:32;;;;;;;9.75;5.78;;;15.60;80.40;;;;;;5120341;27;20051;-82
2023/08/30 11:34:59;;;;;;;10.52;5.85;;;15.60;80.60;;;;;;5116802;27;20113;-83
2023/08/30 11:37:28;;;;;;;9.40;5.87;;;15.60;80.70;;;;;;5116104;27;20054;-82
2023/08/30 11:39:56;;;;;;;11.02;5.90;;;15.60;80.70;;;;;;5114251;27;20573;-81
2023/08/30 11:42:23;;;;;;;11.13;6.65;;;15.60;80.90;;;;;;5103964;27;20054;-82
2023/08/30 11:44:52;;;;;;;10.95;6.40;;;15.60;81.00;;;;;;5106598;27;20043;-82
2023/08/30 11:47:20;;;;;;;10.00;6.18;;;15.60;81.20;;;;;;5099806;27;20523;-82
2023/08/30 11:49:49;;;;;;;11.07;6.00;;;15.60;81.30;;;;;;5094427;28;20056;-82
2023/08/30 11:52:16;;;;;;;9.63;6.03;;;15.60;81.30;;;;;;5086898;27;20067;-81
2023/08/30 11:54:44;;;;;;;10.23;6.32;;;15.60;81.50;;;;;;5089343;28;20105;-82
2023/08/30 11:57:11;;;;;;;10.88;6.80;;;15.60;81.50;;;;;;5105260;27;20044;-81
2023/08/30 11:59:38;;;;;;;10.07;6.28;;;15.60;81.70;;;;;;5117808;27;20151;-81
2023/08/30 12:02:08;;;;;;;10.47;6.00;;;15.60;82.00;;;;;;5113732;27;20139;-79
2023/08/30 12:04:41;;;;;;;10.73;6.57;;;15.60;82.00;;;;;;5109165;27;20065;-80
2023/08/30 12:07:08;;;;;;;11.70;7.25;;;15.60;82.10;;;;;;5126781;27;20060;-80
2023/08/30 12:09:35;;;;;;;10.73;6.82;;;15.60;82.00;;;;;;5140041;27;20048;-80
2023/08/30 12:12:11;;;;;;;10.00;6.20;;;15.60;82.00;;;;;;5109031;27;20052;-80
2023/08/30 12:14:38;;;;;;;10.67;6.70;;;15.60;82.10;;;;;;5100337;27;20058;-79
2023/08/30 12:17:12;;;;;;;10.15;6.07;;;15.60;82.10;;;;;;5098883;27;20051;-80
2023/08/30 12:19:40;;;;;;;9.23;6.28;;;15.70;82.20;;;;;;5106405;27;20082;-79
2023/08/30 12:22:08;;;;;;;9.23;5.78;;;15.70;82.30;;;;;;5101156;27;20560;-80
2023/08/30 12:24:44;;;;;;;8.55;5.38;;;15.60;82.40;;;;;;5108744;27;20044;-80
2023/08/30 12:27:11;;;;;;;8.53;5.10;;;15.60;82.50;;;;;;5090090;27;20052;-80
2023/08/30 12:29:38;;;;;;;8.55;5.60;;;15.60;82.50;;;;;;5135362;27;20751;-80
2023/08/30 12:32:08;;;;;;;7.80;5.13;;;15.70;82.60;;;;;;5104992;27;20453;-80
2023/08/30 12:34:36;;;;;;;7.57;4.72;;;15.70;82.70;;;;;;5099530;27;20463;-80
2023/08/30 12:37:04;;;;;;;7.90;4.82;;;15.70;82.70;;;;;;5117837;27;20040;-82
2023/08/30 12:39:31;;;;;;;7.70;4.87;;;15.70;82.80;;;;;;5119331;27;20524;-80
2023/08/30 12:41:58;;;;;;;7.40;4.53;;;15.70;82.70;;;;;;5139413;27;20059;-80
2023/08/30 12:44:25;;;;;;;6.80;4.45;;;15.70;82.80;;;;;;5108930;28;20254;-80
2023/08/30 12:46:52;;;;;;;7.20;4.43;;;15.60;82.70;;;;;;5089120;27;20044;-81
2023/08/30 12:49:20;;;;;;;7.38;4.32;;;15.60;82.70;;;;;;5105700;27;20055;-81